Time;durP1;ratioP1;P1;durP2;ratioP2;P2;SDS_P1;SDS_P2;PMS_P1;PMS_P2;Temp;Humidity;BMP_temperature;BMP_pressure;BME280_temperature;BME280_humidity;BME280_pressure;Samples;Min_cycle;Max_cycle;Signal;HPM_P1;HPM_P2
2023/03/28 00:01:19;;;;;;;61.33;40.22;;;;;;;17.84;82.14;98505.06;4944496;28;20449;-59
2023/03/28 00:03:51;;;;;;;77.30;42.53;;;;;;;17.85;82.13;98506.69;4948078;28;20134;-58
2023/03/28 00:06:20;;;;;;;75.18;42.92;;;;;;;17.89;82.08;98507.00;4946382;29;20138;-58
2023/03/28 00:08:50;;;;;;;69.90;40.97;;;;;;;17.99;82.10;98512.53;4947490;29;20043;-58
2023/03/28 00:11:21;;;;;;;69.72;41.85;;;;;;;17.93;82.04;98516.16;4915387;29;20066;-58
2023/03/28 00:13:59;;;;;;;72.90;43.55;;;;;;;17.92;82.23;98519.94;4930834;29;20572;-58
2023/03/28 00:16:31;;;;;;;78.68;42.22;;;;;;;17.91;82.30;98532.50;4942070;29;20146;-59
2023/03/28 00:19:04;;;;;;;77.30;43.47;;;;;;;17.92;82.20;98531.44;4944149;29;20047;-56
2023/03/28 00:21:40;;;;;;;69.30;42.40;;;;;;;17.92;82.24;98528.75;4916212;29;20043;-58
2023/03/28 00:24:12;;;;;;;74.20;44.33;;;;;;;17.92;82.16;98533.31;4949398;28;20055;-56
2023/03/28 00:26:44;;;;;;;72.60;42.20;;;;;;;17.97;82.25;98537.97;4947226;29;20118;-56
2023/03/28 00:29:19;;;;;;;70.45;44.13;;;;;;;17.95;82.04;98541.69;4932826;29;20459;-55
2023/03/28 00:31:50;;;;;;;75.00;44.47;;;;;;;17.94;81.77;98542.72;4924447;29;20054;-58
2023/03/28 00:34:20;;;;;;;74.20;45.42;;;;;;;17.88;82.06;98538.34;4928976;29;20649;-58
2023/03/28 00:36:49;;;;;;;81.32;48.67;;;;;;;17.95;82.57;98548.91;4948609;29;20173;-58
2023/03/28 00:39:19;;;;;;;87.20;52.15;;;;;;;17.99;82.36;98546.53;4944910;29;20047;-57
2023/03/28 00:41:48;;;;;;;97.32;55.88;;;;;;;17.99;82.03;98543.88;4932013;29;20055;-59
2023/03/28 00:44:46;;;;;;;99.68;59.83;;;;;;;17.99;82.02;98549.22;4927318;29;20067;-59
2023/03/28 00:47:29;;;;;;;110.00;67.47;;;;;;;18.03;81.89;98559.22;4931906;29;20109;-58
2023/03/28 00:50:10;;;;;;;111.80;68.93;;;;;;;18.04;81.95;98547.44;4941964;29;20706;-57
2023/03/28 00:52:48;;;;;;;120.00;72.25;;;;;;;18.07;81.91;98556.84;4951097;28;20393;-57
2023/03/28 00:55:30;;;;;;;114.10;75.43;;;;;;;18.06;81.92;98557.91;4952823;28;20063;-58
2023/03/28 00:58:00;;;;;;;135.82;80.53;;;;;;;18.02;81.42;98551.41;4943851;29;20054;-57
2023/03/28 01:00:31;;;;;;;130.80;80.35;;;;;;;18.01;81.69;98557.84;4941810;29;20054;-57
2023/03/28 01:03:05;;;;;;;129.80;79.90;;;;;;;18.07;81.90;98556.84;4947933;29;20208;-58
2023/03/28 01:05:36;;;;;;;117.30;79.38;;;;;;;18.07;82.07;98560.34;4947535;28;20083;-56
2023/03/28 01:08:24;;;;;;;126.43;84.60;;;;;;;18.08;81.72;98569.22;4939872;28;20047;-58
2023/03/28 01:10:55;;;;;;;128.25;81.28;;;;;;;18.09;81.77;98570.84;4943384;29;20074;-59
2023/03/28 01:13:30;;;;;;;134.23;84.57;;;;;;;18.09;81.66;98571.66;4927337;28;20546;-58
2023/03/28 01:16:02;;;;;;;138.25;86.95;;;;;;;18.12;81.77;98575.69;4940071;29;20468;-57
2023/03/28 01:18:34;;;;;;;130.77;85.90;;;;;;;18.12;81.49;98570.34;4930913;29;20043;-59
2023/03/28 01:21:41;;;;;;;140.95;88.43;;;;;;;18.16;81.25;98574.16;4936061;28;20091;-58
2023/03/28 01:24:13;;;;;;;142.20;92.13;;;;;;;18.11;80.57;98569.53;4921576;29;20047;-57
2023/03/28 01:26:57;;;;;;;142.65;92.82;;;;;;;18.11;80.46;98580.25;4948254;29;20439;-60
2023/03/28 01:30:02;;;;;;;148.20;93.57;;;;;;;18.11;80.04;98571.38;4932495;29;20057;-58
2023/03/28 01:33:10;;;;;;;150.70;98.65;;;;;;;18.20;79.38;98576.09;4941843;28;20113;-57
2023/03/28 01:35:57;;;;;;;164.15;102.13;;;;;;;18.27;78.91;98584.00;4945884;29;20051;-56
2023/03/28 01:38:39;;;;;;;158.80;105.88;;;;;;;18.31;78.73;98579.78;4932302;29;20125;-58
2023/03/28 01:41:18;;;;;;;169.45;105.10;;;;;;;18.32;78.84;98589.44;4947955;29;20150;-57
2023/03/28 01:43:55;;;;;;;182.40;113.60;;;;;;;18.34;78.64;98584.63;4924526;29;20047;-56
2023/03/28 01:46:34;;;;;;;183.60;119.05;;;;;;;18.39;78.24;98588.22;4947283;29;20075;-59
2023/03/28 01:49:21;;;;;;;205.73;130.50;;;;;;;18.50;77.85;98591.84;4947944;29;20142;-60
2023/03/28 01:52:17;;;;;;;206.05;135.90;;;;;;;18.61;77.11;98593.66;4948412;29;20190;-58
2023/03/28 01:54:52;;;;;;;206.60;135.82;;;;;;;18.77;76.57;98606.22;4932302;29;20691;-56
2023/03/28 01:57:40;;;;;;;213.77;138.80;;;;;;;19.05;75.62;98604.44;4930873;29;20051;-56
2023/03/28 02:00:36;;;;;;;207.85;135.95;;;;;;;19.32;74.47;98607.19;4928127;29;20068;-57
2023/03/28 02:03:20;;;;;;;200.35;134.13;;;;;;;19.44;74.25;98608.69;4947480;28;20058;-56
2023/03/28 02:06:03;;;;;;;215.90;135.95;;;;;;;19.54;74.71;98610.69;4926316;29;20146;-59
2023/03/28 02:08:36;;;;;;;;;;;;;;;19.67;72.65;98613.78;4925481;29;20043;-58
2023/03/28 02:11:26;;;;;;;219.88;145.52;;;;;;;19.94;72.51;98618.34;4928393;29;19930;-57
2023/03/28 02:14:16;;;;;;;218.95;145.45;;;;;;;20.20;70.13;98617.50;4926244;29;20040;-58
2023/03/28 02:17:03;;;;;;;224.30;146.65;;;;;;;20.77;68.95;98623.03;4942931;29;20138;-57
2023/03/28 02:20:04;;;;;;;237.98;142.55;;;;;;;21.28;67.86;98621.47;4900269;29;20676;-57
2023/03/28 02:23:16;;;;;;;208.88;137.80;;;;;;;22.02;65.14;98625.72;4928525;29;20605;-57
2023/03/28 02:25:50;;;;;;;199.48;132.98;;;;;;;22.98;60.37;98631.88;4935244;29;20057;-55
2023/03/28 02:28:47;;;;;;;185.05;125.18;;;;;;;23.75;58.16;98630.50;4945810;29;20446;-57
2023/03/28 02:31:49;;;;;;;179.05;117.93;;;;;;;24.65;54.50;98624.69;4922704;29;20043;-57
2023/03/28 02:34:18;;;;;;;170.98;115.50;;;;;;;24.48;53.83;98634.03;4931177;28;20050;-58
2023/03/28 02:37:34;;;;;;;155.98;110.63;;;;;;;25.19;51.62;98638.75;4930282;28;20637;-59
2023/03/28 02:40:39;;;;;;;156.50;106.03;;;;;;;25.44;51.60;98643.91;4880845;29;20081;-59
2023/03/28 02:43:27;;;;;;;141.27;95.05;;;;;;;25.49;50.68;98648.44;4945482;28;20047;-58
2023/03/28 02:46:07;;;;;;;144.05;96.43;;;;;;;25.59;49.89;98653.75;4921999;29;20846;-57
2023/03/28 02:48:40;;;;;;;138.02;93.18;;;;;;;25.71;48.99;98659.56;4946094;29;20050;-58
2023/03/28 02:51:33;;;;;;;136.55;92.95;;;;;;;25.55;50.00;98660.06;4930643;29;20050;-58
2023/03/28 02:54:21;;;;;;;131.90;88.75;;;;;;;25.13;51.10;98661.63;4938873;29;20506;-60
2023/03/28 02:57:49;;;;;;;140.88;90.18;;;;;;;25.04;52.80;98664.16;4945134;29;20055;-58
2023/03/28 03:00:19;;;;;;;128.23;86.53;;;;;;;25.10;52.64;98656.75;4916123;29;20074;-57
2023/03/28 03:02:50;;;;;;;117.28;76.25;;;;;;;24.96;52.36;98659.34;4929183;29;20837;-57
2023/03/28 03:05:21;;;;;;;122.18;77.28;;;;;;;25.17;52.10;98667.25;4927590;29;20083;-58
2023/03/28 03:07:51;;;;;;;116.38;76.45;;;;;;;25.20;52.37;98672.91;4929247;29;20049;-57
2023/03/28 03:10:21;;;;;;;121.53;77.53;;;;;;;25.13;50.49;98680.59;4946718;29;20043;-58
2023/03/28 03:12:50;;;;;;;120.55;78.63;;;;;;;25.41;52.36;98676.19;4935979;29;20114;-60
2023/03/28 03:15:20;;;;;;;109.10;70.78;;;;;;;25.50;50.88;98685.31;4940067;29;20073;-58
2023/03/28 03:17:52;;;;;;;105.03;74.17;;;;;;;25.47;52.68;98681.28;4947363;29;20110;-60
2023/03/28 03:20:32;;;;;;;111.03;66.85;;;;;;;25.40;51.28;98691.66;4919003;29;20051;-58
2023/03/28 03:23:03;;;;;;;96.85;64.28;;;;;;;25.30;50.70;98691.78;4942317;28;20047;-60
2023/03/28 03:25:34;;;;;;;95.72;62.42;;;;;;;25.31;50.06;98693.41;4943068;29;20047;-59
2023/03/28 03:28:27;;;;;;;89.53;55.17;;;;;;;25.82;48.54;98695.50;4945934;29;20047;-58
2023/03/28 03:30:56;;;;;;;84.97;55.53;;;;;;;25.56;48.31;98702.34;4945481;29;20059;-58
2023/03/28 03:33:25;;;;;;;81.53;48.78;;;;;;;25.64;49.68;98705.22;4925607;29;20908;-58
2023/03/28 03:36:02;;;;;;;73.05;47.40;;;;;;;25.63;50.35;98708.22;4944492;28;20053;-62
2023/03/28 03:38:34;;;;;;;63.38;39.88;;;;;;;25.48;49.64;98709.22;4933584;29;20147;-60
2023/03/28 03:41:03;;;;;;;59.53;38.17;;;;;;;25.57;49.26;98721.06;4931560;29;20067;-59
2023/03/28 03:43:33;;;;;;;59.72;39.35;;;;;;;25.66;49.48;98724.75;4956793;28;20490;-58
2023/03/28 03:46:03;;;;;;;46.70;32.17;;;;;;;25.66;49.63;98732.09;4950169;29;20171;-60
2023/03/28 03:48:32;;;;;;;52.95;30.95;;;;;;;25.64;49.18;98718.00;4947129;29;20058;-59
2023/03/28 03:51:02;;;;;;;46.55;28.30;;;;;;;25.57;48.49;98720.25;4948461;28;20043;-61
2023/03/28 03:53:33;;;;;;;63.38;43.17;;;;;;;25.52;49.75;98723.00;4933768;29;20220;-58
2023/03/28 03:56:09;;;;;;;62.42;38.38;;;;;;;25.52;50.40;98721.09;4923766;29;20054;-57
2023/03/28 03:58:53;;;;;;;71.55;39.42;;;;;;;25.40;50.68;98720.69;4949980;29;20483;-59
2023/03/28 04:01:28;;;;;;;50.83;28.00;;;;;;;25.45;50.08;98721.41;4932723;29;20055;-58
2023/03/28 04:04:11;;;;;;;50.38;27.98;;;;;;;25.23;50.58;98715.69;4936401;28;20050;-57
2023/03/28 04:07:01;;;;;;;57.67;37.47;;;;;;;25.20;51.70;98721.69;4938081;29;20047;-58
2023/03/28 04:09:31;;;;;;;48.35;34.53;;;;;;;25.28;51.80;98722.97;4945774;29;20132;-58
2023/03/28 04:12:09;;;;;;;33.67;20.75;;;;;;;24.92;45.73;98728.75;4930090;29;20054;-57
2023/03/28 04:14:46;;;;;;;33.35;19.88;;;;;;;24.95;49.37;98732.81;4958178;28;20051;-58
2023/03/28 04:17:40;;;;;;;25.80;15.38;;;;;;;24.90;48.54;98732.84;4930092;29;20051;-59
2023/03/28 04:20:16;;;;;;;29.73;15.25;;;;;;;25.05;48.19;98736.22;4931199;29;20055;-59
2023/03/28 04:23:07;;;;;;;21.63;13.82;;;;;;;25.09;46.53;98735.66;4932818;29;20746;-60
2023/03/28 04:25:40;;;;;;;;;;;;;;;25.16;46.42;98733.41;4936485;29;20118;-59
2023/03/28 04:28:15;;;;;;;42.40;17.35;;;;;;;25.28;43.81;98736.53;4941042;29;19930;-59
2023/03/28 04:30:57;;;;;;;36.05;19.83;;;;;;;25.73;47.88;98741.47;4938153;29;20039;-59
2023/03/28 04:34:06;;;;;;;23.58;15.82;;;;;;;25.87;46.08;98741.59;4947857;28;20134;-60
2023/03/28 04:36:44;;;;;;;32.03;17.70;;;;;;;26.10;45.92;98739.91;4931849;29;20062;-60
2023/03/28 04:39:14;;;;;;;31.17;18.02;;;;;;;26.47;44.55;98745.38;4948661;29;20074;-59
2023/03/28 04:42:04;;;;;;;24.77;12.98;;;;;;;26.31;43.89;98733.94;4932380;29;20082;-56
2023/03/28 04:45:01;;;;;;;31.13;15.40;;;;;;;26.78;43.13;98734.81;4954987;28;20581;-63
2023/03/28 04:47:31;;;;;;;25.52;14.63;;;;;;;26.87;42.88;98737.69;4951374;28;20062;-59
2023/03/28 04:50:00;;;;;;;20.17;13.00;;;;;;;27.06;43.80;98738.47;4925920;29;20388;-61
2023/03/28 04:52:35;;;;;;;29.77;15.85;;;;;;;27.16;44.87;98746.44;4928189;29;20128;-59
2023/03/28 04:55:06;;;;;;;37.78;16.95;;;;;;;27.49;44.91;98739.03;4925862;29;20048;-60
2023/03/28 04:57:37;;;;;;;28.85;15.23;;;;;;;27.75;43.19;98734.72;4928825;29;20114;-61
2023/03/28 05:00:09;;;;;;;24.50;14.80;;;;;;;27.61;42.21;98732.00;4939093;28;20073;-60
2023/03/28 05:03:00;;;;;;;27.90;13.48;;;;;;;27.17;42.65;98739.91;4949084;29;20047;-61
2023/03/28 05:05:34;;;;;;;28.13;13.07;;;;;;;27.20;40.46;98733.88;4922469;29;20669;-61
2023/03/28 05:08:08;;;;;;;23.95;13.75;;;;;;;27.55;42.89;98741.38;4932076;28;20066;-63
2023/03/28 05:10:39;;;;;;;22.95;11.52;;;;;;;28.23;41.89;98737.81;4929702;29;20127;-60
2023/03/28 05:13:10;;;;;;;22.48;12.82;;;;;;;28.37;41.68;98724.16;4946240;29;20055;-60
2023/03/28 05:15:47;;;;;;;27.50;13.93;;;;;;;28.23;39.48;98737.00;4929550;29;20047;-59
2023/03/28 05:18:36;;;;;;;25.33;13.82;;;;;;;28.64;41.69;98739.56;4927161;29;20809;-59
2023/03/28 05:21:06;;;;;;;23.13;10.18;;;;;;;28.75;38.30;98735.50;4927091;29;20048;-59
2023/03/28 05:23:35;;;;;;;24.70;12.23;;;;;;;28.81;39.19;98734.28;4947928;29;20493;-59
2023/03/28 05:26:14;;;;;;;23.10;11.20;;;;;;;27.93;36.12;98730.25;4939479;28;20138;-59
2023/03/28 05:28:44;;;;;;;26.58;10.30;;;;;;;27.42;40.86;98733.19;4943919;28;20166;-58
2023/03/28 05:31:16;;;;;;;20.85;10.07;;;;;;;27.97;39.24;98729.34;4944861;29;20055;-58
2023/03/28 05:33:52;;;;;;;18.60;9.70;;;;;;;28.22;40.37;98725.28;4921781;29;20138;-58
2023/03/28 05:36:34;;;;;;;21.00;10.48;;;;;;;28.85;37.18;98713.47;4940439;29;20527;-59
2023/03/28 05:39:04;;;;;;;16.88;7.78;;;;;;;28.84;38.50;98711.84;4948092;28;20043;-59
2023/03/28 05:41:34;;;;;;;17.30;8.27;;;;;;;28.02;34.20;98712.09;4925850;29;20534;-59
2023/03/28 05:44:03;;;;;;;18.52;9.10;;;;;;;28.17;35.61;98698.16;4941070;29;20507;-60
2023/03/28 05:46:51;;;;;;;21.50;8.50;;;;;;;28.63;35.17;98705.25;4938224;29;20102;-58
2023/03/28 05:49:21;;;;;;;15.23;8.00;;;;;;;29.02;38.04;98708.09;4908590;29;20662;-57
2023/03/28 05:51:51;;;;;;;14.05;7.43;;;;;;;29.11;37.68;98708.94;4930735;29;20062;-57
2023/03/28 05:54:21;;;;;;;11.07;5.15;;;;;;;29.15;36.64;98715.38;4922338;29;20069;-59
2023/03/28 05:56:51;;;;;;;14.65;6.07;;;;;;;29.47;35.59;98708.81;4924264;29;20051;-59
2023/03/28 05:59:26;;;;;;;14.93;6.95;;;;;;;29.29;38.53;98720.75;4924991;29;20127;-59
2023/03/28 06:01:55;;;;;;;14.43;8.15;;;;;;;29.28;39.11;98717.22;4937475;29;20063;-59
2023/03/28 06:04:25;;;;;;;20.17;8.15;;;;;;;29.48;37.71;98712.31;4920544;29;20067;-58
2023/03/28 06:06:55;;;;;;;12.25;6.28;;;;;;;29.13;36.58;98709.44;4940249;28;20046;-58
2023/03/28 06:09:30;;;;;;;18.33;7.50;;;;;;;28.69;35.87;98714.91;4941299;29;20515;-61
2023/03/28 06:12:04;;;;;;;36.08;8.32;;;;;;;28.46;37.62;98714.91;4929207;29;20051;-62
2023/03/28 06:14:36;;;;;;;13.30;7.78;;;;;;;28.43;37.67;98707.34;4920780;29;20062;-63
2023/03/28 06:17:10;;;;;;;13.10;7.85;;;;;;;27.94;38.26;98710.09;4929859;29;20380;-60
2023/03/28 06:19:47;;;;;;;18.83;7.95;;;;;;;28.23;34.14;98696.13;4932210;29;20129;-62
2023/03/28 06:22:18;;;;;;;13.68;8.15;;;;;;;28.82;35.31;98697.69;4932651;29;20051;-61
2023/03/28 06:24:53;;;;;;;13.23;7.75;;;;;;;29.14;35.40;98704.78;4927554;29;20130;-62
2023/03/28 06:27:31;;;;;;;23.38;7.78;;;;;;;29.48;37.77;98704.13;4921976;29;20155;-60
2023/03/28 06:30:03;;;;;;;14.85;6.70;;;;;;;29.30;35.34;98701.34;4927624;29;20055;-61
2023/03/28 06:32:41;;;;;;;21.92;8.00;;;;;;;29.17;34.94;98704.94;4935654;28;20055;-59
2023/03/28 06:35:13;;;;;;;20.35;9.05;;;;;;;28.94;35.25;98711.59;4938941;28;20059;-60
2023/03/28 06:37:43;;;;;;;18.52;7.78;;;;;;;28.41;35.13;98709.56;4926829;29;20144;-60
2023/03/28 06:40:15;;;;;;;19.67;8.75;;;;;;;28.50;36.69;98713.16;4931249;29;20051;-60
2023/03/28 06:42:45;;;;;;;17.55;7.85;;;;;;;28.31;35.05;98707.09;4931920;29;20074;-60
2023/03/28 06:45:30;;;;;;;18.13;8.20;;;;;;;28.45;36.03;98701.59;4939542;29;20043;-60
2023/03/28 06:48:03;;;;;;;17.33;10.10;;;;;;;28.74;36.75;98701.19;4938557;28;20153;-60
2023/03/28 06:51:00;;;;;;;28.35;9.75;;;;;;;28.87;38.81;98703.03;4930419;29;20555;-60
2023/03/28 06:53:30;;;;;;;21.55;11.07;;;;;;;29.11;38.55;98695.31;4926087;29;20500;-58
2023/03/28 06:55:59;;;;;;;13.88;7.35;;;;;;;28.65;32.12;98694.84;4942248;29;20043;-57
2023/03/28 06:58:30;;;;;;;20.73;8.63;;;;;;;28.71;37.44;98699.09;4927671;29;20055;-58
2023/03/28 07:01:06;;;;;;;20.75;8.07;;;;;;;28.83;40.85;98693.88;4922908;29;20157;-58
2023/03/28 07:03:44;;;;;;;23.13;9.50;;;;;;;28.78;37.50;98688.53;4942415;29;20067;-58
2023/03/28 07:06:20;;;;;;;18.02;8.38;;;;;;;28.86;34.01;98687.78;4942866;28;20472;-52
2023/03/28 07:08:49;;;;;;;18.17;9.13;;;;;;;28.75;34.08;98679.06;4926215;29;20143;-58
2023/03/28 07:11:24;;;;;;;16.88;9.32;;;;;;;28.72;36.22;98679.72;4926563;29;20126;-58
2023/03/28 07:13:54;;;;;;;19.50;10.63;;;;;;;28.41;34.04;98676.88;4929374;29;20054;-57
2023/03/28 07:16:24;;;;;;;16.92;10.25;;;;;;;28.50;35.84;98675.00;4912752;29;20142;-56
2023/03/28 07:18:54;;;;;;;18.90;10.15;;;;;;;28.78;38.43;98670.25;4929365;29;20043;-58
2023/03/28 07:21:30;;;;;;;16.15;9.75;;;;;;;29.15;36.17;98669.00;4949974;28;20051;-58
2023/03/28 07:24:02;;;;;;;22.02;10.13;;;;;;;28.86;37.33;98669.50;4945919;28;20050;-61
2023/03/28 07:26:44;;;;;;;22.07;11.57;;;;;;;28.65;35.37;98668.38;4957839;28;20058;-56
2023/03/28 07:29:14;;;;;;;24.52;11.80;;;;;;;28.95;37.43;98664.09;4946291;28;20141;-58
2023/03/28 07:31:44;;;;;;;26.55;10.25;;;;;;;29.29;37.38;98661.56;4962932;28;20521;-58
2023/03/28 07:34:19;;;;;;;16.35;9.90;;;;;;;29.20;38.60;98657.97;4928155;29;20134;-58
2023/03/28 07:36:50;;;;;;;17.63;9.82;;;;;;;29.33;37.40;98648.91;4930384;29;20051;-58
2023/03/28 07:39:42;;;;;;;25.00;11.05;;;;;;;29.01;37.74;98644.56;4947280;29;20484;-58
2023/03/28 07:42:16;;;;;;;18.77;11.27;;;;;;;29.12;38.30;98645.06;4930364;28;20055;-58
2023/03/28 07:44:45;;;;;;;20.05;9.98;;;;;;;28.70;37.59;98643.75;4942194;28;20079;-61
2023/03/28 07:47:17;;;;;;;25.65;11.52;;;;;;;28.55;37.46;98639.47;4927175;29;20047;-55
2023/03/28 07:49:47;;;;;;;35.80;12.05;;;;;;;28.36;38.99;98638.88;4946184;29;20827;-57
2023/03/28 07:52:17;;;;;;;21.02;11.27;;;;;;;28.29;39.49;98637.69;4929813;29;20055;-59
2023/03/28 07:54:46;;;;;;;24.90;10.40;;;;;;;28.14;39.65;98636.16;4927175;29;20097;-59
2023/03/28 07:57:15;;;;;;;23.95;11.57;;;;;;;27.93;38.17;98629.50;4928976;29;20055;-59
2023/03/28 08:00:07;;;;;;;22.45;10.57;;;;;;;27.77;39.76;98623.63;4946589;29;20051;-59
2023/03/28 08:02:40;;;;;;;23.38;10.98;;;;;;;27.87;40.73;98628.84;4947161;29;20110;-57
2023/03/28 08:05:14;;;;;;;18.83;10.57;;;;;;;27.91;38.43;98635.28;4925780;29;20111;-57
2023/03/28 08:07:47;;;;;;;15.88;10.45;;;;;;;27.87;39.44;98628.03;4934758;28;20063;-58
2023/03/28 08:10:17;;;;;;;19.55;8.82;;;;;;;27.61;38.85;98630.53;4944680;28;20154;-58
2023/03/28 08:12:46;;;;;;;21.17;8.40;;;;;;;27.57;38.73;98635.75;4944957;28;20043;-57
2023/03/28 08:15:15;;;;;;;17.70;7.40;;;;;;;27.54;38.75;98636.38;4937141;28;20134;-57
2023/03/28 08:17:45;;;;;;;22.73;9.35;;;;;;;27.47;40.34;98633.22;4938534;29;20047;-57
2023/03/28 08:20:16;;;;;;;22.88;9.40;;;;;;;27.51;40.74;98625.28;4935597;29;20360;-57
2023/03/28 08:22:58;;;;;;;17.23;9.85;;;;;;;27.42;39.86;98622.44;4935801;29;20130;-56
2023/03/28 08:25:46;;;;;;;19.77;9.27;;;;;;;27.67;39.11;98611.03;4943974;29;20065;-58
2023/03/28 08:28:21;;;;;;;17.73;8.85;;;;;;;27.83;40.20;98608.78;4932911;28;20094;-57
2023/03/28 08:30:50;;;;;;;17.70;8.88;;;;;;;28.06;39.55;98602.22;4950772;28;20058;-52
2023/03/28 08:33:21;;;;;;;22.95;9.40;;;;;;;28.25;39.02;98596.63;4938843;28;20106;-57
2023/03/28 08:35:54;;;;;;;19.13;9.98;;;;;;;28.41;38.23;98597.84;4931792;29;20055;-55
2023/03/28 08:38:25;;;;;;;14.48;8.70;;;;;;;28.39;39.19;98596.56;4923757;29;20056;-54
2023/03/28 08:41:26;;;;;;;15.43;9.02;;;;;;;28.15;40.22;98588.72;4940302;28;20403;-55
2023/03/28 08:44:15;;;;;;;19.13;8.65;;;;;;;28.33;39.84;98592.34;4896995;28;20635;-55
2023/03/28 08:46:53;;;;;;;15.75;9.20;;;;;;;28.01;38.69;98579.78;4947418;29;20062;-54
2023/03/28 08:49:23;;;;;;;17.77;9.00;;;;;;;28.26;40.16;98576.47;4926770;29;20066;-57
2023/03/28 08:52:00;;;;;;;16.85;9.23;;;;;;;28.36;38.92;98572.69;4957775;28;20062;-56
2023/03/28 08:54:44;;;;;;;18.27;9.82;;;;;;;28.18;38.35;98570.97;4940738;29;20059;-56
2023/03/28 08:57:20;;;;;;;22.67;10.00;;;;;;;28.12;38.11;98573.81;4949883;28;20817;-55
2023/03/28 08:59:58;;;;;;;13.15;10.23;;;;;;;28.34;37.13;98562.09;4931947;29;20511;-55
2023/03/28 09:02:29;;;;;;;23.63;11.77;;;;;;;28.43;36.07;98556.69;4941351;28;20134;-56
2023/03/28 09:04:59;;;;;;;20.50;10.85;;;;;;;28.47;36.42;98553.03;4936736;29;20047;-54
2023/03/28 09:08:08;;;;;;;17.80;10.68;;;;;;;28.58;38.22;98551.66;4927373;29;20039;-55
2023/03/28 09:10:58;;;;;;;20.00;11.00;;;;;;;28.32;37.15;98545.25;4941536;29;20082;-58
2023/03/28 09:13:56;;;;;;;23.20;11.70;;;;;;;28.24;38.60;98540.53;4949275;28;20487;-56
2023/03/28 09:16:51;;;;;;;14.93;9.57;;;;;;;28.14;39.62;98543.56;4929088;28;20047;-57
2023/03/28 09:19:34;;;;;;;16.65;10.35;;;;;;;27.92;38.62;98527.19;4929945;29;20043;-54
2023/03/28 09:23:10;;;;;;;18.10;10.80;;;;;;;28.15;39.71;98531.53;4948126;29;20066;-57
2023/03/28 09:25:59;;;;;;;24.97;11.50;;;;;;;28.04;39.90;98532.88;4926429;29;20062;-59
2023/03/28 09:28:54;;;;;;;18.90;10.23;;;;;;;27.94;39.33;98530.41;4935593;29;20051;-55
2023/03/28 09:31:32;;;;;;;26.08;11.00;;;;;;;27.78;40.06;98531.88;4946755;29;20051;-55
2023/03/28 09:34:05;;;;;;;17.25;10.93;;;;;;;27.79;40.30;98526.16;4930138;28;20055;-57
2023/03/28 09:36:46;;;;;;;22.52;12.90;;;;;;;27.65;39.71;98522.66;4938181;29;20105;-57
2023/03/28 09:39:48;;;;;;;22.38;12.43;;;;;;;27.69;38.86;98519.03;4946974;29;22770;-55
2023/03/28 09:43:01;;;;;;;24.60;13.57;;;;;;;27.83;38.64;98512.72;4946112;29;20063;-57
2023/03/28 09:45:53;;;;;;;14.57;11.13;;;;;;;28.02;39.56;98507.84;4916852;29;20043;-56
2023/03/28 09:48:59;;;;;;;16.95;12.02;;;;;;;28.06;38.14;98506.13;4931084;29;20490;-57
2023/03/28 09:51:32;;;;;;;19.25;10.55;;;;;;;28.06;38.63;98501.47;4929900;29;20048;-56
2023/03/28 09:54:06;;;;;;;17.40;11.57;;;;;;;28.09;39.82;98492.72;4923275;29;20135;-61
2023/03/28 09:56:37;;;;;;;16.25;11.63;;;;;;;28.03;39.39;98495.84;4937397;29;20051;-57
2023/03/28 09:59:41;;;;;;;19.88;10.70;;;;;;;27.81;38.29;98493.16;4917856;29;20095;-56
2023/03/28 10:02:33;;;;;;;18.25;10.27;;;;;;;27.63;39.15;98493.03;4927391;29;20654;-56
2023/03/28 10:05:37;;;;;;;16.05;10.30;;;;;;;27.42;39.97;98486.44;4914731;29;20055;-56
2023/03/28 10:08:31;;;;;;;20.92;10.85;;;;;;;27.24;40.76;98495.53;4893070;29;20068;-55
2023/03/28 10:11:21;;;;;;;20.15;10.68;;;;;;;27.09;40.02;98487.72;4925225;29;20044;-56
2023/03/28 10:13:52;;;;;;;24.85;10.88;;;;;;;26.94;40.26;98490.78;4916995;29;20050;-56
2023/03/28 10:16:31;;;;;;;22.05;11.32;;;;;;;26.87;42.15;98482.22;4909084;29;20056;-56
2023/03/28 10:19:24;;;;;;;26.50;12.20;;;;;;;26.80;42.39;98485.31;4912024;29;20070;-53
2023/03/28 10:22:06;;;;;;;;;;;;;;;26.78;41.76;98482.09;4928831;29;20098;-54
2023/03/28 10:24:39;;;;;;;21.58;12.70;;;;;;;26.69;41.25;98492.03;4926798;29;19942;-54
2023/03/28 10:27:30;;;;;;;19.02;12.88;;;;;;;26.65;41.47;98486.41;4928101;29;20436;-55
2023/03/28 10:30:21;;;;;;;18.63;12.80;;;;;;;26.62;41.44;98478.88;4914091;29;20127;-56
2023/03/28 10:33:15;;;;;;;19.08;13.45;;;;;;;26.56;39.91;98474.66;4925697;29;20083;-56
2023/03/28 10:36:27;;;;;;;19.25;12.38;;;;;;;26.59;40.58;98475.97;4887927;29;20056;-55
2023/03/28 10:39:18;;;;;;;19.52;12.38;;;;;;;26.56;40.98;98469.22;4917428;29;20705;-55
2023/03/28 10:42:07;;;;;;;19.38;13.13;;;;;;;26.58;41.08;98469.72;4910332;29;20047;-57
2023/03/28 10:45:17;;;;;;;22.67;12.55;;;;;;;26.56;41.50;98455.63;4876361;29;20064;-55
2023/03/28 10:47:51;;;;;;;26.67;13.18;;;;;;;26.55;41.45;98464.09;4927132;29;20091;-56
2023/03/28 10:50:25;;;;;;;23.92;10.90;;;;;;;26.51;37.85;98446.81;4927899;29;20079;-56
2023/03/28 10:53:16;;;;;;;17.40;10.75;;;;;;;26.54;37.87;98451.63;4933273;29;20501;-54
2023/03/28 10:56:17;;;;;;;20.20;10.00;;;;;;;26.50;40.75;98462.28;4930510;29;20550;-55
2023/03/28 10:59:10;;;;;;;19.90;9.68;;;;;;;26.44;41.75;98455.34;4947381;28;20047;-56
2023/03/28 11:02:08;;;;;;;17.17;8.52;;;;;;;26.42;42.46;98460.28;4928486;29;20048;-54
2023/03/28 11:04:52;;;;;;;17.75;8.88;;;;;;;26.40;41.82;98457.06;4946671;28;20043;-55
2023/03/28 11:07:35;;;;;;;24.08;10.52;;;;;;;26.40;42.20;98457.06;4943170;28;20529;-56
2023/03/28 11:10:43;;;;;;;23.75;8.82;;;;;;;26.36;43.85;98456.84;4937064;29;20047;-55
2023/03/28 11:13:39;;;;;;;15.68;8.73;;;;;;;26.36;44.75;98456.84;4942314;29;20051;-55
2023/03/28 11:16:42;;;;;;;16.90;8.13;;;;;;;26.38;43.90;98457.34;4930058;29;20054;-53
2023/03/28 11:20:09;;;;;;;14.63;8.15;;;;;;;26.40;43.12;98448.91;4928463;29;20771;-55
2023/03/28 11:23:22;;;;;;;18.52;8.85;;;;;;;26.39;42.08;98452.72;4941733;29;20047;-56
2023/03/28 11:26:20;;;;;;;20.23;8.20;;;;;;;26.38;41.00;98453.81;4927625;29;20489;-55
2023/03/28 11:29:37;;;;;;;16.90;8.48;;;;;;;26.40;40.71;98454.34;4945372;28;20649;-58
2023/03/28 11:32:22;;;;;;;15.20;8.50;;;;;;;26.39;41.36;98452.72;4917258;29;20061;-55
2023/03/28 11:35:13;;;;;;;14.05;8.38;;;;;;;26.39;39.20;98455.44;4935414;29;20047;-52
2023/03/28 11:38:09;;;;;;;15.77;8.93;;;;;;;26.40;38.65;98453.53;4933575;29;20054;-52
2023/03/28 11:40:51;;;;;;;17.40;9.35;;;;;;;26.42;40.32;98456.75;4921014;29;20047;-57
2023/03/28 11:43:39;;;;;;;20.23;9.18;;;;;;;26.42;37.97;98459.47;4943989;29;20063;-53
2023/03/28 11:46:17;;;;;;;16.45;7.40;;;;;;;26.43;38.57;98459.16;4943958;29;20799;-59
2023/03/28 11:49:03;;;;;;;12.60;7.25;;;;;;;26.44;38.92;98460.78;4928719;29;20055;-59
2023/03/28 11:51:32;;;;;;;20.73;7.80;;;;;;;26.44;38.38;98457.25;4944839;29;20059;-61
2023/03/28 11:54:11;;;;;;;24.88;9.55;;;;;;;26.42;38.69;98459.47;4926507;29;20579;-58
2023/03/28 11:56:55;;;;;;;16.77;9.20;;;;;;;26.41;38.06;98458.66;4929714;29;20376;-58
2023/03/28 12:00:03;;;;;;;16.92;9.32;;;;;;;26.41;38.19;98455.94;4927835;29;20468;-59
2023/03/28 12:02:50;;;;;;;17.43;8.07;;;;;;;26.41;42.53;98472.25;4949147;28;20050;-57
2023/03/28 12:05:31;;;;;;;19.25;9.40;;;;;;;26.34;41.29;98461.75;4932841;29;20047;-57
2023/03/28 12:08:17;;;;;;;25.88;9.60;;;;;;;26.28;40.51;98473.84;4946616;28;20062;-59
2023/03/28 12:10:56;;;;;;;19.85;8.63;;;;;;;26.23;39.91;98464.97;4933262;29;20062;-60
2023/03/28 12:13:57;;;;;;;14.43;8.55;;;;;;;26.19;38.80;98466.66;4940009;29;20067;-58
2023/03/28 12:16:50;;;;;;;13.75;8.38;;;;;;;26.13;39.50;98465.13;4943118;28;20440;-59
2023/03/28 12:19:52;;;;;;;16.42;9.55;;;;;;;26.08;40.04;98465.22;4934108;28;20186;-58
2023/03/28 12:22:51;;;;;;;17.27;11.23;;;;;;;26.03;41.24;98471.53;4925660;29;20062;-58